sensor_id;sensor_type;location;lat;lon;timestamp;P1;durP1;ratioP1;P2;durP2;ratioP2
1625;SDS011;806;48.770;9.156;2023-05-14T00:01:40;2.05;;;1.70;;
1625;SDS011;806;48.770;9.156;2023-05-14T00:04:09;2.22;;;1.92;;
1625;SDS011;806;48.770;9.156;2023-05-14T00:06:36;2.10;;;1.70;;
1625;SDS011;806;48.770;9.156;2023-05-14T00:09:03;3.77;;;2.07;;
1625;SDS011;806;48.770;9.156;2023-05-14T00:11:30;2.08;;;1.88;;
1625;SDS011;806;48.770;9.156;2023-05-14T00:13:57;2.00;;;1.60;;
1625;SDS011;806;48.770;9.156;2023-05-14T00:16:24;2.20;;;1.87;;
1625;SDS011;806;48.770;9.156;2023-05-14T00:18:51;3.95;;;1.80;;
1625;SDS011;806;48.770;9.156;2023-05-14T00:21:19;2.10;;;1.70;;
1625;SDS011;806;48.770;9.156;2023-05-14T00:23:46;2.80;;;1.80;;
1625;SDS011;806;48.770;9.156;2023-05-14T00:26:13;2.00;;;1.80;;
1625;SDS011;806;48.770;9.156;2023-05-14T00:28:40;2.40;;;1.90;;
1625;SDS011;806;48.770;9.156;2023-05-14T00:31:07;2.30;;;1.90;;
1625;SDS011;806;48.770;9.156;2023-05-14T00:33:34;2.63;;;1.92;;
1625;SDS011;806;48.770;9.156;2023-05-14T00:36:01;2.30;;;1.90;;
1625;SDS011;806;48.770;9.156;2023-05-14T00:38:30;2.15;;;1.70;;
1625;SDS011;806;48.770;9.156;2023-05-14T00:40:57;1.70;;;1.50;;
1625;SDS011;806;48.770;9.156;2023-05-14T00:43:24;2.50;;;2.00;;
1625;SDS011;806;48.770;9.156;2023-05-14T00:45:52;2.10;;;1.60;;
1625;SDS011;806;48.770;9.156;2023-05-14T00:48:20;2.10;;;1.67;;
1625;SDS011;806;48.770;9.156;2023-05-14T00:50:48;2.05;;;1.52;;
1625;SDS011;806;48.770;9.156;2023-05-14T00:53:16;2.38;;;2.00;;
1625;SDS011;806;48.770;9.156;2023-05-14T00:55:45;2.30;;;1.60;;
1625;SDS011;806;48.770;9.156;2023-05-14T00:58:13;2.30;;;1.70;;
1625;SDS011;806;48.770;9.156;2023-05-14T01:00:41;1.90;;;1.50;;
1625;SDS011;806;48.770;9.156;2023-05-14T01:03:08;2.58;;;1.83;;
1625;SDS011;806;48.770;9.156;2023-05-14T01:05:40;3.58;;;2.30;;
1625;SDS011;806;48.770;9.156;2023-05-14T01:08:19;2.13;;;1.70;;
1625;SDS011;806;48.770;9.156;2023-05-14T01:10:55;2.30;;;1.70;;
1625;SDS011;806;48.770;9.156;2023-05-14T01:13:30;2.38;;;2.08;;
1625;SDS011;806;48.770;9.156;2023-05-14T01:16:04;2.50;;;2.30;;
1625;SDS011;806;48.770;9.156;2023-05-14T01:18:34;2.08;;;1.88;;
1625;SDS011;806;48.770;9.156;2023-05-14T01:21:01;2.40;;;2.00;;
1625;SDS011;806;48.770;9.156;2023-05-14T01:23:30;2.50;;;2.10;;
1625;SDS011;806;48.770;9.156;2023-05-14T01:25:57;2.65;;;2.17;;
1625;SDS011;806;48.770;9.156;2023-05-14T01:28:25;3.50;;;2.60;;
1625;SDS011;806;48.770;9.156;2023-05-14T01:31:00;2.30;;;1.90;;
1625;SDS011;806;48.770;9.156;2023-05-14T01:33:31;3.50;;;1.92;;
1625;SDS011;806;48.770;9.156;2023-05-14T01:36:00;2.50;;;2.13;;
1625;SDS011;806;48.770;9.156;2023-05-14T01:38:28;2.80;;;2.60;;
1625;SDS011;806;48.770;9.156;2023-05-14T01:40:58;4.65;;;2.90;;
1625;SDS011;806;48.770;9.156;2023-05-14T01:43:26;2.60;;;2.00;;
1625;SDS011;806;48.770;9.156;2023-05-14T01:45:53;2.72;;;2.13;;
1625;SDS011;806;48.770;9.156;2023-05-14T01:48:21;2.30;;;1.92;;
1625;SDS011;806;48.770;9.156;2023-05-14T01:50:48;2.30;;;2.00;;
1625;SDS011;806;48.770;9.156;2023-05-14T01:53:15;3.40;;;2.25;;
1625;SDS011;806;48.770;9.156;2023-05-14T01:55:44;3.40;;;2.50;;
1625;SDS011;806;48.770;9.156;2023-05-14T01:58:11;3.75;;;2.80;;
1625;SDS011;806;48.770;9.156;2023-05-14T02:00:38;3.15;;;2.40;;
1625;SDS011;806;48.770;9.156;2023-05-14T02:03:05;2.50;;;2.20;;
1625;SDS011;806;48.770;9.156;2023-05-14T02:05:32;3.30;;;2.60;;
1625;SDS011;806;48.770;9.156;2023-05-14T02:07:59;3.20;;;2.58;;
1625;SDS011;806;48.770;9.156;2023-05-14T02:10:26;2.90;;;2.60;;
1625;SDS011;806;48.770;9.156;2023-05-14T02:12:54;2.97;;;2.17;;
1625;SDS011;806;48.770;9.156;2023-05-14T02:15:21;3.10;;;2.43;;
1625;SDS011;806;48.770;9.156;2023-05-14T02:17:48;2.60;;;2.40;;
1625;SDS011;806;48.770;9.156;2023-05-14T02:20:15;2.70;;;2.50;;
1625;SDS011;806;48.770;9.156;2023-05-14T02:22:42;2.47;;;2.13;;
1625;SDS011;806;48.770;9.156;2023-05-14T02:25:10;3.28;;;2.63;;
1625;SDS011;806;48.770;9.156;2023-05-14T02:27:37;3.40;;;2.90;;
1625;SDS011;806;48.770;9.156;2023-05-14T02:30:07;3.40;;;2.70;;
1625;SDS011;806;48.770;9.156;2023-05-14T02:32:35;3.72;;;2.67;;
1625;SDS011;806;48.770;9.156;2023-05-14T02:35:02;3.72;;;2.80;;
1625;SDS011;806;48.770;9.156;2023-05-14T02:37:29;2.90;;;2.40;;
1625;SDS011;806;48.770;9.156;2023-05-14T02:39:56;3.15;;;2.20;;
1625;SDS011;806;48.770;9.156;2023-05-14T02:42:23;2.80;;;2.10;;
1625;SDS011;806;48.770;9.156;2023-05-14T02:44:51;2.60;;;2.20;;
1625;SDS011;806;48.770;9.156;2023-05-14T02:47:19;1.80;;;1.60;;
1625;SDS011;806;48.770;9.156;2023-05-14T02:49:46;3.67;;;2.40;;
1625;SDS011;806;48.770;9.156;2023-05-14T02:52:14;2.40;;;2.20;;
1625;SDS011;806;48.770;9.156;2023-05-14T02:54:41;2.78;;;2.03;;
1625;SDS011;806;48.770;9.156;2023-05-14T02:57:08;2.80;;;2.30;;
1625;SDS011;806;48.770;9.156;2023-05-14T02:59:35;3.20;;;2.25;;
1625;SDS011;806;48.770;9.156;2023-05-14T03:02:02;3.53;;;1.90;;
1625;SDS011;806;48.770;9.156;2023-05-14T03:04:30;2.47;;;1.80;;
1625;SDS011;806;48.770;9.156;2023-05-14T03:06:57;2.58;;;1.92;;
1625;SDS011;806;48.770;9.156;2023-05-14T03:09:24;2.60;;;1.83;;
1625;SDS011;806;48.770;9.156;2023-05-14T03:11:51;2.73;;;2.00;;
1625;SDS011;806;48.770;9.156;2023-05-14T03:14:18;3.43;;;2.40;;
1625;SDS011;806;48.770;9.156;2023-05-14T03:16:45;2.20;;;1.85;;
1625;SDS011;806;48.770;9.156;2023-05-14T03:19:12;2.40;;;2.08;;
1625;SDS011;806;48.770;9.156;2023-05-14T03:21:41;2.58;;;2.38;;
1625;SDS011;806;48.770;9.156;2023-05-14T03:24:08;2.60;;;2.35;;
1625;SDS011;806;48.770;9.156;2023-05-14T03:26:35;3.33;;;2.35;;
1625;SDS011;806;48.770;9.156;2023-05-14T03:29:02;2.80;;;2.00;;
1625;SDS011;806;48.770;9.156;2023-05-14T03:31:29;2.65;;;2.10;;
1625;SDS011;806;48.770;9.156;2023-05-14T03:33:56;4.57;;;2.40;;
1625;SDS011;806;48.770;9.156;2023-05-14T03:36:23;2.45;;;2.10;;
1625;SDS011;806;48.770;9.156;2023-05-14T03:38:52;3.30;;;2.17;;
1625;SDS011;806;48.770;9.156;2023-05-14T03:41:19;3.05;;;1.90;;
1625;SDS011;806;48.770;9.156;2023-05-14T03:43:47;2.90;;;2.50;;
1625;SDS011;806;48.770;9.156;2023-05-14T03:46:14;2.60;;;2.40;;
1625;SDS011;806;48.770;9.156;2023-05-14T03:48:41;3.03;;;2.40;;
1625;SDS011;806;48.770;9.156;2023-05-14T03:51:08;4.45;;;2.70;;
1625;SDS011;806;48.770;9.156;2023-05-14T03:53:35;3.00;;;2.60;;
1625;SDS011;806;48.770;9.156;2023-05-14T03:56:03;3.40;;;2.33;;
1625;SDS011;806;48.770;9.156;2023-05-14T03:58:30;3.67;;;2.80;;
1625;SDS011;806;48.770;9.156;2023-05-14T04:00:58;3.20;;;2.80;;
1625;SDS011;806;48.770;9.156;2023-05-14T04:03:25;2.60;;;2.15;;
1625;SDS011;806;48.770;9.156;2023-05-14T04:05:52;3.50;;;2.70;;
1625;SDS011;806;48.770;9.156;2023-05-14T04:08:19;4.30;;;2.50;;
1625;SDS011;806;48.770;9.156;2023-05-14T04:10:46;3.63;;;2.38;;
1625;SDS011;806;48.770;9.156;2023-05-14T04:13:17;3.10;;;2.10;;
1625;SDS011;806;48.770;9.156;2023-05-14T04:15:44;3.95;;;3.00;;
1625;SDS011;806;48.770;9.156;2023-05-14T04:18:11;2.40;;;2.10;;
1625;SDS011;806;48.770;9.156;2023-05-14T04:20:38;2.40;;;1.80;;
1625;SDS011;806;48.770;9.156;2023-05-14T04:23:05;3.08;;;2.05;;
1625;SDS011;806;48.770;9.156;2023-05-14T04:25:32;1.85;;;1.65;;
1625;SDS011;806;48.770;9.156;2023-05-14T04:27:59;2.35;;;2.15;;
1625;SDS011;806;48.770;9.156;2023-05-14T04:30:27;3.10;;;2.05;;
1625;SDS011;806;48.770;9.156;2023-05-14T04:32:54;5.03;;;2.00;;
1625;SDS011;806;48.770;9.156;2023-05-14T04:35:21;3.53;;;1.92;;
1625;SDS011;806;48.770;9.156;2023-05-14T04:37:57;2.72;;;1.90;;
1625;SDS011;806;48.770;9.156;2023-05-14T04:40:24;2.58;;;2.30;;
1625;SDS011;806;48.770;9.156;2023-05-14T04:42:51;3.30;;;2.70;;
1625;SDS011;806;48.770;9.156;2023-05-14T04:45:18;3.45;;;2.30;;
1625;SDS011;806;48.770;9.156;2023-05-14T04:47:47;2.67;;;2.13;;
1625;SDS011;806;48.770;9.156;2023-05-14T04:50:15;2.30;;;1.90;;
1625;SDS011;806;48.770;9.156;2023-05-14T04:52:42;2.33;;;1.92;;
1625;SDS011;806;48.770;9.156;2023-05-14T04:55:09;2.60;;;2.22;;
1625;SDS011;806;48.770;9.156;2023-05-14T04:57:36;1.90;;;1.50;;
1625;SDS011;806;48.770;9.156;2023-05-14T05:00:03;3.75;;;2.00;;
1625;SDS011;806;48.770;9.156;2023-05-14T05:02:31;2.35;;;2.03;;
1625;SDS011;806;48.770;9.156;2023-05-14T05:05:01;3.17;;;2.20;;
1625;SDS011;806;48.770;9.156;2023-05-14T05:07:28;3.70;;;2.00;;
1625;SDS011;806;48.770;9.156;2023-05-14T05:09:55;2.38;;;2.08;;
1625;SDS011;806;48.770;9.156;2023-05-14T05:12:22;2.60;;;1.90;;
1625;SDS011;806;48.770;9.156;2023-05-14T05:14:50;2.55;;;1.85;;
1625;SDS011;806;48.770;9.156;2023-05-14T05:17:17;2.65;;;1.90;;
1625;SDS011;806;48.770;9.156;2023-05-14T05:19:44;2.33;;;2.13;;
1625;SDS011;806;48.770;9.156;2023-05-14T05:22:12;2.30;;;1.70;;
1625;SDS011;806;48.770;9.156;2023-05-14T05:24:39;2.80;;;2.08;;
1625;SDS011;806;48.770;9.156;2023-05-14T05:27:06;2.47;;;1.80;;
1625;SDS011;806;48.770;9.156;2023-05-14T05:29:34;2.22;;;1.90;;
1625;SDS011;806;48.770;9.156;2023-05-14T05:32:01;2.22;;;1.70;;
1625;SDS011;806;48.770;9.156;2023-05-14T05:34:29;2.70;;;2.10;;
1625;SDS011;806;48.770;9.156;2023-05-14T05:36:56;3.15;;;1.92;;
1625;SDS011;806;48.770;9.156;2023-05-14T05:39:24;2.22;;;1.80;;
1625;SDS011;806;48.770;9.156;2023-05-14T05:41:52;2.80;;;2.30;;
1625;SDS011;806;48.770;9.156;2023-05-14T05:44:19;3.08;;;1.73;;
1625;SDS011;806;48.770;9.156;2023-05-14T05:46:46;2.30;;;1.90;;
1625;SDS011;806;48.770;9.156;2023-05-14T05:49:15;3.10;;;1.70;;
1625;SDS011;806;48.770;9.156;2023-05-14T05:51:42;3.25;;;2.40;;
1625;SDS011;806;48.770;9.156;2023-05-14T05:54:09;3.30;;;2.40;;
1625;SDS011;806;48.770;9.156;2023-05-14T05:56:37;2.97;;;2.30;;
1625;SDS011;806;48.770;9.156;2023-05-14T05:59:04;4.05;;;1.90;;
1625;SDS011;806;48.770;9.156;2023-05-14T06:01:31;3.38;;;2.40;;
1625;SDS011;806;48.770;9.156;2023-05-14T06:03:58;2.50;;;2.10;;
1625;SDS011;806;48.770;9.156;2023-05-14T06:06:26;3.72;;;2.47;;
1625;SDS011;806;48.770;9.156;2023-05-14T06:08:53;2.45;;;1.95;;
1625;SDS011;806;48.770;9.156;2023-05-14T06:11:20;2.42;;;1.92;;
1625;SDS011;806;48.770;9.156;2023-05-14T06:13:49;3.40;;;2.45;;
1625;SDS011;806;48.770;9.156;2023-05-14T06:16:16;2.65;;;1.70;;
1625;SDS011;806;48.770;9.156;2023-05-14T06:18:45;2.35;;;1.80;;
1625;SDS011;806;48.770;9.156;2023-05-14T06:21:12;2.40;;;1.88;;
1625;SDS011;806;48.770;9.156;2023-05-14T06:23:39;3.42;;;2.22;;
1625;SDS011;806;48.770;9.156;2023-05-14T06:26:06;2.78;;;2.47;;
1625;SDS011;806;48.770;9.156;2023-05-14T06:28:33;3.00;;;2.10;;
1625;SDS011;806;48.770;9.156;2023-05-14T06:31:01;3.20;;;2.20;;
1625;SDS011;806;48.770;9.156;2023-05-14T06:33:28;3.20;;;1.52;;
1625;SDS011;806;48.770;9.156;2023-05-14T06:35:55;2.60;;;1.73;;
1625;SDS011;806;48.770;9.156;2023-05-14T06:38:23;3.50;;;1.70;;
1625;SDS011;806;48.770;9.156;2023-05-14T06:40:50;2.28;;;1.95;;
1625;SDS011;806;48.770;9.156;2023-05-14T06:43:18;2.08;;;1.67;;
1625;SDS011;806;48.770;9.156;2023-05-14T06:45:47;2.30;;;1.70;;
1625;SDS011;806;48.770;9.156;2023-05-14T06:48:16;2.50;;;2.05;;
1625;SDS011;806;48.770;9.156;2023-05-14T06:50:44;4.75;;;2.40;;
1625;SDS011;806;48.770;9.156;2023-05-14T06:53:11;2.85;;;2.05;;
1625;SDS011;806;48.770;9.156;2023-05-14T06:55:38;3.20;;;2.08;;
1625;SDS011;806;48.770;9.156;2023-05-14T06:58:06;2.55;;;2.05;;
1625;SDS011;806;48.770;9.156;2023-05-14T07:00:33;2.60;;;2.30;;
1625;SDS011;806;48.770;9.156;2023-05-14T07:03:00;2.75;;;2.20;;
1625;SDS011;806;48.770;9.156;2023-05-14T07:05:29;2.20;;;1.70;;
1625;SDS011;806;48.770;9.156;2023-05-14T07:07:56;2.00;;;1.80;;
1625;SDS011;806;48.770;9.156;2023-05-14T07:10:23;4.57;;;2.20;;
1625;SDS011;806;48.770;9.156;2023-05-14T07:12:50;3.08;;;2.30;;
1625;SDS011;806;48.770;9.156;2023-05-14T07:15:18;2.70;;;2.10;;
1625;SDS011;806;48.770;9.156;2023-05-14T07:17:45;3.10;;;2.40;;
1625;SDS011;806;48.770;9.156;2023-05-14T07:20:12;3.17;;;2.20;;
1625;SDS011;806;48.770;9.156;2023-05-14T07:22:40;2.50;;;2.00;;
1625;SDS011;806;48.770;9.156;2023-05-14T07:25:07;2.40;;;2.10;;
1625;SDS011;806;48.770;9.156;2023-05-14T07:27:35;3.85;;;2.33;;
1625;SDS011;806;48.770;9.156;2023-05-14T07:30:02;3.50;;;2.55;;
1625;SDS011;806;48.770;9.156;2023-05-14T07:32:29;2.40;;;2.00;;
1625;SDS011;806;48.770;9.156;2023-05-14T07:34:56;4.40;;;2.60;;
1625;SDS011;806;48.770;9.156;2023-05-14T07:37:23;2.90;;;2.30;;
1625;SDS011;806;48.770;9.156;2023-05-14T07:39:52;3.70;;;2.60;;
1625;SDS011;806;48.770;9.156;2023-05-14T07:42:20;3.15;;;2.30;;
1625;SDS011;806;48.770;9.156;2023-05-14T07:44:47;4.60;;;2.67;;
1625;SDS011;806;48.770;9.156;2023-05-14T07:47:15;2.72;;;2.10;;
1625;SDS011;806;48.770;9.156;2023-05-14T07:49:42;3.42;;;2.33;;
1625;SDS011;806;48.770;9.156;2023-05-14T07:52:09;2.93;;;1.80;;
1625;SDS011;806;48.770;9.156;2023-05-14T07:54:36;2.10;;;1.80;;
1625;SDS011;806;48.770;9.156;2023-05-14T07:57:05;3.38;;;1.85;;
1625;SDS011;806;48.770;9.156;2023-05-14T07:59:32;3.27;;;2.40;;
1625;SDS011;806;48.770;9.156;2023-05-14T08:01:59;2.40;;;1.90;;
1625;SDS011;806;48.770;9.156;2023-05-14T08:04:26;2.60;;;2.20;;
1625;SDS011;806;48.770;9.156;2023-05-14T08:06:53;2.20;;;1.90;;
1625;SDS011;806;48.770;9.156;2023-05-14T08:09:22;2.58;;;1.73;;
1625;SDS011;806;48.770;9.156;2023-05-14T08:11:49;2.72;;;2.10;;
1625;SDS011;806;48.770;9.156;2023-05-14T08:14:17;2.65;;;2.15;;
1625;SDS011;806;48.770;9.156;2023-05-14T08:16:45;3.30;;;2.03;;
1625;SDS011;806;48.770;9.156;2023-05-14T08:19:13;3.80;;;2.40;;
1625;SDS011;806;48.770;9.156;2023-05-14T08:21:41;1.88;;;1.60;;
1625;SDS011;806;48.770;9.156;2023-05-14T08:24:08;2.63;;;1.90;;
1625;SDS011;806;48.770;9.156;2023-05-14T08:26:35;2.78;;;2.20;;
1625;SDS011;806;48.770;9.156;2023-05-14T08:29:02;3.20;;;2.40;;
1625;SDS011;806;48.770;9.156;2023-05-14T08:31:31;2.65;;;2.28;;
1625;SDS011;806;48.770;9.156;2023-05-14T08:33:58;2.42;;;2.10;;
1625;SDS011;806;48.770;9.156;2023-05-14T08:36:25;2.90;;;1.80;;
1625;SDS011;806;48.770;9.156;2023-05-14T08:38:52;3.05;;;1.90;;
1625;SDS011;806;48.770;9.156;2023-05-14T08:41:19;2.80;;;1.70;;
1625;SDS011;806;48.770;9.156;2023-05-14T08:43:49;4.35;;;2.17;;
1625;SDS011;806;48.770;9.156;2023-05-14T08:46:23;2.40;;;1.88;;
1625;SDS011;806;48.770;9.156;2023-05-14T08:48:55;2.90;;;2.17;;
1625;SDS011;806;48.770;9.156;2023-05-14T08:51:26;2.50;;;1.90;;
1625;SDS011;806;48.770;9.156;2023-05-14T08:53:53;2.87;;;2.40;;
1625;SDS011;806;48.770;9.156;2023-05-14T08:56:22;3.25;;;2.42;;
1625;SDS011;806;48.770;9.156;2023-05-14T08:58:51;2.00;;;1.60;;
1625;SDS011;806;48.770;9.156;2023-05-14T09:01:18;3.20;;;2.10;;
1625;SDS011;806;48.770;9.156;2023-05-14T09:03:45;2.10;;;1.90;;
1625;SDS011;806;48.770;9.156;2023-05-14T09:06:15;4.13;;;2.33;;
1625;SDS011;806;48.770;9.156;2023-05-14T09:08:43;2.70;;;2.30;;
1625;SDS011;806;48.770;9.156;2023-05-14T09:11:11;3.00;;;2.20;;
1625;SDS011;806;48.770;9.156;2023-05-14T09:13:38;3.33;;;2.65;;
1625;SDS011;806;48.770;9.156;2023-05-14T09:16:06;2.55;;;2.10;;
1625;SDS011;806;48.770;9.156;2023-05-14T09:18:34;3.85;;;2.50;;
1625;SDS011;806;48.770;9.156;2023-05-14T09:21:01;2.92;;;2.50;;
1625;SDS011;806;48.770;9.156;2023-05-14T09:23:32;3.30;;;2.40;;
1625;SDS011;806;48.770;9.156;2023-05-14T09:26:02;3.10;;;2.80;;
1625;SDS011;806;48.770;9.156;2023-05-14T09:28:30;2.85;;;2.35;;
1625;SDS011;806;48.770;9.156;2023-05-14T09:30:57;2.50;;;2.30;;
1625;SDS011;806;48.770;9.156;2023-05-14T09:33:25;4.07;;;2.60;;
1625;SDS011;806;48.770;9.156;2023-05-14T09:35:54;3.10;;;2.60;;
1625;SDS011;806;48.770;9.156;2023-05-14T09:38:26;2.83;;;2.53;;
1625;SDS011;806;48.770;9.156;2023-05-14T09:40:56;3.70;;;2.50;;
1625;SDS011;806;48.770;9.156;2023-05-14T09:43:23;3.40;;;2.72;;
1625;SDS011;806;48.770;9.156;2023-05-14T09:45:50;3.10;;;2.25;;
1625;SDS011;806;48.770;9.156;2023-05-14T09:48:17;2.85;;;1.83;;
1625;SDS011;806;48.770;9.156;2023-05-14T09:50:46;3.15;;;2.67;;
1625;SDS011;806;48.770;9.156;2023-05-14T09:53:13;2.20;;;1.83;;
1625;SDS011;806;48.770;9.156;2023-05-14T09:55:41;2.10;;;1.90;;
1625;SDS011;806;48.770;9.156;2023-05-14T09:58:10;1.90;;;1.38;;
1625;SDS011;806;48.770;9.156;2023-05-14T10:00:40;2.20;;;1.50;;
1625;SDS011;806;48.770;9.156;2023-05-14T10:03:11;2.00;;;1.80;;
1625;SDS011;806;48.770;9.156;2023-05-14T10:05:40;2.20;;;2.00;;
1625;SDS011;806;48.770;9.156;2023-05-14T10:08:08;2.40;;;1.90;;
1625;SDS011;806;48.770;9.156;2023-05-14T10:10:39;1.80;;;1.58;;
1625;SDS011;806;48.770;9.156;2023-05-14T10:13:10;2.60;;;1.80;;
1625;SDS011;806;48.770;9.156;2023-05-14T10:15:45;3.30;;;1.90;;
1625;SDS011;806;48.770;9.156;2023-05-14T10:18:15;2.38;;;1.90;;
1625;SDS011;806;48.770;9.156;2023-05-14T10:20:45;2.10;;;1.40;;
1625;SDS011;806;48.770;9.156;2023-05-14T10:23:16;2.10;;;1.77;;
1625;SDS011;806;48.770;9.156;2023-05-14T10:25:44;2.15;;;1.85;;
1625;SDS011;806;48.770;9.156;2023-05-14T10:28:11;2.80;;;1.80;;
1625;SDS011;806;48.770;9.156;2023-05-14T10:30:41;2.60;;;1.95;;
1625;SDS011;806;48.770;9.156;2023-05-14T10:33:11;2.20;;;1.70;;
1625;SDS011;806;48.770;9.156;2023-05-14T10:35:54;2.10;;;1.80;;
1625;SDS011;806;48.770;9.156;2023-05-14T10:38:24;2.22;;;1.63;;
1625;SDS011;806;48.770;9.156;2023-05-14T10:40:53;2.80;;;1.70;;
1625;SDS011;806;48.770;9.156;2023-05-14T10:43:28;2.20;;;2.00;;
1625;SDS011;806;48.770;9.156;2023-05-14T10:45:58;2.00;;;1.60;;
1625;SDS011;806;48.770;9.156;2023-05-14T10:48:26;2.20;;;2.00;;
1625;SDS011;806;48.770;9.156;2023-05-14T10:50:55;2.40;;;1.60;;
1625;SDS011;806;48.770;9.156;2023-05-14T10:53:29;2.90;;;2.40;;
1625;SDS011;806;48.770;9.156;2023-05-14T10:56:00;2.20;;;1.40;;
1625;SDS011;806;48.770;9.156;2023-05-14T10:58:30;1.90;;;1.70;;
1625;SDS011;806;48.770;9.156;2023-05-14T11:00:59;1.70;;;1.20;;
1625;SDS011;806;48.770;9.156;2023-05-14T11:03:28;1.52;;;1.23;;
1625;SDS011;806;48.770;9.156;2023-05-14T11:05:56;1.90;;;1.50;;
1625;SDS011;806;48.770;9.156;2023-05-14T11:08:24;1.77;;;1.30;;
1625;SDS011;806;48.770;9.156;2023-05-14T11:10:53;1.70;;;1.38;;
1625;SDS011;806;48.770;9.156;2023-05-14T11:13:21;2.37;;;1.50;;
1625;SDS011;806;48.770;9.156;2023-05-14T11:15:48;1.98;;;1.60;;
1625;SDS011;806;48.770;9.156;2023-05-14T11:18:26;2.70;;;1.88;;
1625;SDS011;806;48.770;9.156;2023-05-14T11:20:56;2.40;;;1.85;;
1625;SDS011;806;48.770;9.156;2023-05-14T11:23:24;2.27;;;1.70;;
1625;SDS011;806;48.770;9.156;2023-05-14T11:25:52;2.20;;;1.90;;
1625;SDS011;806;48.770;9.156;2023-05-14T11:28:19;1.90;;;1.60;;
1625;SDS011;806;48.770;9.156;2023-05-14T11:30:47;1.83;;;1.63;;
1625;SDS011;806;48.770;9.156;2023-05-14T11:33:15;2.00;;;1.58;;
1625;SDS011;806;48.770;9.156;2023-05-14T11:35:44;2.20;;;1.60;;
1625;SDS011;806;48.770;9.156;2023-05-14T11:38:15;1.90;;;1.40;;
1625;SDS011;806;48.770;9.156;2023-05-14T11:40:50;1.60;;;1.30;;
1625;SDS011;806;48.770;9.156;2023-05-14T11:43:18;2.35;;;1.42;;
1625;SDS011;806;48.770;9.156;2023-05-14T11:45:48;1.40;;;1.10;;
1625;SDS011;806;48.770;9.156;2023-05-14T11:48:16;1.60;;;1.23;;
1625;SDS011;806;48.770;9.156;2023-05-14T11:50:45;1.80;;;1.50;;
1625;SDS011;806;48.770;9.156;2023-05-14T11:53:17;1.40;;;1.15;;
1625;SDS011;806;48.770;9.156;2023-05-14T11:55:45;1.60;;;1.40;;
1625;SDS011;806;48.770;9.156;2023-05-14T11:58:13;1.80;;;1.25;;
1625;SDS011;806;48.770;9.156;2023-05-14T12:00:43;1.65;;;1.10;;
1625;SDS011;806;48.770;9.156;2023-05-14T12:03:10;1.90;;;1.40;;
1625;SDS011;806;48.770;9.156;2023-05-14T12:05:39;2.30;;;1.40;;
1625;SDS011;806;48.770;9.156;2023-05-14T12:08:21;1.40;;;1.20;;
1625;SDS011;806;48.770;9.156;2023-05-14T12:10:48;2.00;;;1.30;;
1625;SDS011;806;48.770;9.156;2023-05-14T12:13:15;1.30;;;1.13;;
1625;SDS011;806;48.770;9.156;2023-05-14T12:15:44;2.40;;;1.10;;
1625;SDS011;806;48.770;9.156;2023-05-14T12:18:12;1.50;;;1.30;;
1625;SDS011;806;48.770;9.156;2023-05-14T12:20:44;1.70;;;1.30;;
1625;SDS011;806;48.770;9.156;2023-05-14T12:23:12;1.90;;;1.20;;
1625;SDS011;806;48.770;9.156;2023-05-14T12:25:41;1.85;;;1.20;;
1625;SDS011;806;48.770;9.156;2023-05-14T12:28:15;2.20;;;1.10;;
1625;SDS011;806;48.770;9.156;2023-05-14T12:30:44;2.10;;;1.00;;
1625;SDS011;806;48.770;9.156;2023-05-14T12:33:11;1.50;;;1.20;;
1625;SDS011;806;48.770;9.156;2023-05-14T12:35:38;2.00;;;1.20;;
1625;SDS011;806;48.770;9.156;2023-05-14T12:38:05;1.30;;;1.00;;
1625;SDS011;806;48.770;9.156;2023-05-14T12:40:32;1.50;;;1.30;;
1625;SDS011;806;48.770;9.156;2023-05-14T12:43:01;1.30;;;1.20;;
1625;SDS011;806;48.770;9.156;2023-05-14T12:45:29;1.60;;;1.10;;
1625;SDS011;806;48.770;9.156;2023-05-14T12:47:56;1.80;;;1.58;;
1625;SDS011;806;48.770;9.156;2023-05-14T12:50:23;1.53;;;1.17;;
1625;SDS011;806;48.770;9.156;2023-05-14T12:52:50;1.30;;;1.10;;
1625;SDS011;806;48.770;9.156;2023-05-14T12:55:17;1.20;;;1.10;;
1625;SDS011;806;48.770;9.156;2023-05-14T12:57:44;1.60;;;1.10;;
1625;SDS011;806;48.770;9.156;2023-05-14T13:00:13;1.90;;;1.00;;
1625;SDS011;806;48.770;9.156;2023-05-14T13:02:41;1.00;;;0.80;;
1625;SDS011;806;48.770;9.156;2023-05-14T13:05:08;1.20;;;0.93;;
1625;SDS011;806;48.770;9.156;2023-05-14T13:07:35;1.00;;;0.90;;
1625;SDS011;806;48.770;9.156;2023-05-14T13:10:03;2.00;;;1.00;;
1625;SDS011;806;48.770;9.156;2023-05-14T13:12:30;1.30;;;1.00;;
1625;SDS011;806;48.770;9.156;2023-05-14T13:14:57;1.23;;;0.93;;
1625;SDS011;806;48.770;9.156;2023-05-14T13:17:26;1.00;;;0.80;;
1625;SDS011;806;48.770;9.156;2023-05-14T13:19:53;1.38;;;0.95;;
1625;SDS011;806;48.770;9.156;2023-05-14T13:22:20;1.15;;;0.90;;
1625;SDS011;806;48.770;9.156;2023-05-14T13:24:47;1.10;;;0.90;;
1625;SDS011;806;48.770;9.156;2023-05-14T13:27:14;1.10;;;0.90;;
1625;SDS011;806;48.770;9.156;2023-05-14T13:29:41;1.10;;;0.85;;
1625;SDS011;806;48.770;9.156;2023-05-14T13:32:08;1.00;;;0.90;;
1625;SDS011;806;48.770;9.156;2023-05-14T13:34:37;1.50;;;1.00;;
1625;SDS011;806;48.770;9.156;2023-05-14T13:37:04;1.27;;;1.00;;
1625;SDS011;806;48.770;9.156;2023-05-14T13:39:31;1.23;;;1.10;;
1625;SDS011;806;48.770;9.156;2023-05-14T13:41:58;1.50;;;1.10;;
1625;SDS011;806;48.770;9.156;2023-05-14T13:44:25;1.60;;;1.10;;
1625;SDS011;806;48.770;9.156;2023-05-14T13:46:52;1.17;;;1.00;;
1625;SDS011;806;48.770;9.156;2023-05-14T13:49:19;1.35;;;1.08;;
1625;SDS011;806;48.770;9.156;2023-05-14T13:51:48;1.23;;;1.00;;
1625;SDS011;806;48.770;9.156;2023-05-14T13:54:15;1.20;;;1.00;;
1625;SDS011;806;48.770;9.156;2023-05-14T13:56:42;1.30;;;1.00;;
1625;SDS011;806;48.770;9.156;2023-05-14T13:59:09;1.20;;;1.00;;
1625;SDS011;806;48.770;9.156;2023-05-14T14:01:36;1.40;;;1.20;;
1625;SDS011;806;48.770;9.156;2023-05-14T14:04:03;1.30;;;1.00;;
1625;SDS011;806;48.770;9.156;2023-05-14T14:06:30;1.30;;;1.02;;
1625;SDS011;806;48.770;9.156;2023-05-14T14:08:59;1.30;;;1.00;;
1625;SDS011;806;48.770;9.156;2023-05-14T14:11:26;1.60;;;1.10;;
1625;SDS011;806;48.770;9.156;2023-05-14T14:13:53;1.40;;;1.10;;
1625;SDS011;806;48.770;9.156;2023-05-14T14:16:20;1.50;;;1.00;;
1625;SDS011;806;48.770;9.156;2023-05-14T14:18:47;1.40;;;1.00;;
1625;SDS011;806;48.770;9.156;2023-05-14T14:21:14;1.20;;;0.90;;
1625;SDS011;806;48.770;9.156;2023-05-14T14:23:42;1.30;;;0.90;;
1625;SDS011;806;48.770;9.156;2023-05-14T14:26:11;1.30;;;0.80;;
1625;SDS011;806;48.770;9.156;2023-05-14T14:28:38;1.05;;;0.80;;
1625;SDS011;806;48.770;9.156;2023-05-14T14:31:05;1.10;;;0.88;;
1625;SDS011;806;48.770;9.156;2023-05-14T14:33:32;1.00;;;0.70;;
1625;SDS011;806;48.770;9.156;2023-05-14T14:35:59;1.00;;;0.80;;
1625;SDS011;806;48.770;9.156;2023-05-14T14:38:26;1.10;;;0.90;;
1625;SDS011;806;48.770;9.156;2023-05-14T14:40:53;1.33;;;0.80;;
1625;SDS011;806;48.770;9.156;2023-05-14T14:43:22;1.15;;;1.00;;
1625;SDS011;806;48.770;9.156;2023-05-14T14:45:49;1.33;;;0.93;;
1625;SDS011;806;48.770;9.156;2023-05-14T14:48:23;1.10;;;0.90;;
1625;SDS011;806;48.770;9.156;2023-05-14T14:50:51;1.10;;;0.90;;
1625;SDS011;806;48.770;9.156;2023-05-14T14:53:18;1.30;;;0.80;;
1625;SDS011;806;48.770;9.156;2023-05-14T14:55:46;1.30;;;0.90;;
1625;SDS011;806;48.770;9.156;2023-05-14T14:58:13;1.50;;;0.80;;
1625;SDS011;806;48.770;9.156;2023-05-14T15:00:41;1.00;;;0.88;;
1625;SDS011;806;48.770;9.156;2023-05-14T15:03:09;1.10;;;0.80;;
1625;SDS011;806;48.770;9.156;2023-05-14T15:05:36;1.92;;;0.80;;
1625;SDS011;806;48.770;9.156;2023-05-14T15:08:04;1.50;;;0.80;;
1625;SDS011;806;48.770;9.156;2023-05-14T15:10:31;1.00;;;0.70;;
1625;SDS011;806;48.770;9.156;2023-05-14T15:13:02;1.13;;;0.80;;
1625;SDS011;806;48.770;9.156;2023-05-14T15:15:30;1.20;;;0.80;;
1625;SDS011;806;48.770;9.156;2023-05-14T15:17:59;0.90;;;0.70;;
1625;SDS011;806;48.770;9.156;2023-05-14T15:20:26;1.02;;;0.80;;
1625;SDS011;806;48.770;9.156;2023-05-14T15:22:53;0.80;;;0.70;;
1625;SDS011;806;48.770;9.156;2023-05-14T15:25:21;1.10;;;0.80;;
1625;SDS011;806;48.770;9.156;2023-05-14T15:27:49;1.80;;;0.80;;
1625;SDS011;806;48.770;9.156;2023-05-14T15:30:16;1.00;;;0.80;;
1625;SDS011;806;48.770;9.156;2023-05-14T15:32:44;0.93;;;0.80;;
1625;SDS011;806;48.770;9.156;2023-05-14T15:35:12;1.00;;;0.70;;